sensor_id;sensor_type;location;lat;lon;timestamp;temperature;humidity
63202;DHT22;49296;48.188;11.566;2022-08-25T00:01:39;21.64;63.54
63202;DHT22;49296;48.188;11.566;2022-08-25T00:04:07;21.54;63.70
63202;DHT22;49296;48.188;11.566;2022-08-25T00:06:35;21.55;63.73
63202;DHT22;49296;48.188;11.566;2022-08-25T00:09:03;21.50;63.88
63202;DHT22;49296;48.188;11.566;2022-08-25T00:11:30;21.51;63.86
63202;DHT22;49296;48.188;11.566;2022-08-25T00:13:59;21.49;63.90
63202;DHT22;49296;48.188;11.566;2022-08-25T00:16:26;21.47;63.96
63202;DHT22;49296;48.188;11.566;2022-08-25T00:18:55;21.40;64.08
63202;DHT22;49296;48.188;11.566;2022-08-25T00:21:22;21.39;64.14
63202;DHT22;49296;48.188;11.566;2022-08-25T00:23:49;21.30;64.48
63202;DHT22;49296;48.188;11.566;2022-08-25T00:26:20;21.33;64.41
63202;DHT22;49296;48.188;11.566;2022-08-25T00:28:47;21.30;64.45
63202;DHT22;49296;48.188;11.566;2022-08-25T00:31:14;21.36;64.39
63202;DHT22;49296;48.188;11.566;2022-08-25T00:33:41;21.34;64.30
63202;DHT22;49296;48.188;11.566;2022-08-25T00:36:08;21.32;64.34
63202;DHT22;49296;48.188;11.566;2022-08-25T00:38:36;21.26;64.59
63202;DHT22;49296;48.188;11.566;2022-08-25T00:41:03;21.22;64.78
63202;DHT22;49296;48.188;11.566;2022-08-25T00:43:43;21.22;64.73
63202;DHT22;49296;48.188;11.566;2022-08-25T00:46:11;21.18;64.79
63202;DHT22;49296;48.188;11.566;2022-08-25T00:48:38;21.19;64.91
63202;DHT22;49296;48.188;11.566;2022-08-25T00:51:06;21.15;64.91
63202;DHT22;49296;48.188;11.566;2022-08-25T00:53:35;21.16;64.97
63202;DHT22;49296;48.188;11.566;2022-08-25T00:56:02;21.12;65.02
63202;DHT22;49296;48.188;11.566;2022-08-25T00:58:28;21.10;65.06
63202;DHT22;49296;48.188;11.566;2022-08-25T01:00:58;21.12;65.14
63202;DHT22;49296;48.188;11.566;2022-08-25T01:03:26;21.08;65.23
63202;DHT22;49296;48.188;11.566;2022-08-25T01:05:53;21.05;65.29
63202;DHT22;49296;48.188;11.566;2022-08-25T01:08:20;21.08;65.17
63202;DHT22;49296;48.188;11.566;2022-08-25T01:10:48;21.09;65.19
63202;DHT22;49296;48.188;11.566;2022-08-25T01:13:15;21.06;65.22
63202;DHT22;49296;48.188;11.566;2022-08-25T01:15:44;21.00;65.50
63202;DHT22;49296;48.188;11.566;2022-08-25T01:18:13;20.98;65.62
63202;DHT22;49296;48.188;11.566;2022-08-25T01:20:40;20.92;65.72
63202;DHT22;49296;48.188;11.566;2022-08-25T01:23:08;20.90;65.80
63202;DHT22;49296;48.188;11.566;2022-08-25T01:25:36;20.87;65.87
63202;DHT22;49296;48.188;11.566;2022-08-25T01:28:04;20.90;65.84
63202;DHT22;49296;48.188;11.566;2022-08-25T01:30:31;20.82;65.96
63202;DHT22;49296;48.188;11.566;2022-08-25T01:32:57;20.78;66.18
63202;DHT22;49296;48.188;11.566;2022-08-25T01:35:24;20.80;66.16
63202;DHT22;49296;48.188;11.566;2022-08-25T01:37:50;20.73;66.32
63202;DHT22;49296;48.188;11.566;2022-08-25T01:40:18;20.71;66.42
63202;DHT22;49296;48.188;11.566;2022-08-25T01:42:51;20.73;66.35
63202;DHT22;49296;48.188;11.566;2022-08-25T01:45:19;20.68;66.58
63202;DHT22;49296;48.188;11.566;2022-08-25T01:47:45;20.67;66.50
63202;DHT22;49296;48.188;11.566;2022-08-25T01:50:11;20.74;66.44
63202;DHT22;49296;48.188;11.566;2022-08-25T01:52:44;20.67;66.63
63202;DHT22;49296;48.188;11.566;2022-08-25T01:55:11;20.64;66.73
63202;DHT22;49296;48.188;11.566;2022-08-25T01:57:39;20.50;67.08
63202;DHT22;49296;48.188;11.566;2022-08-25T02:00:06;20.53;66.95
63202;DHT22;49296;48.188;11.566;2022-08-25T02:02:34;20.39;67.52
63202;DHT22;49296;48.188;11.566;2022-08-25T02:05:01;20.36;67.59
63202;DHT22;49296;48.188;11.566;2022-08-25T02:07:27;20.40;67.48
63202;DHT22;49296;48.188;11.566;2022-08-25T02:09:54;20.44;67.36
63202;DHT22;49296;48.188;11.566;2022-08-25T02:12:21;20.46;67.31
63202;DHT22;49296;48.188;11.566;2022-08-25T02:14:48;20.41;67.42
63202;DHT22;49296;48.188;11.566;2022-08-25T02:17:15;20.41;67.41
63202;DHT22;49296;48.188;11.566;2022-08-25T02:19:42;20.36;67.60
63202;DHT22;49296;48.188;11.566;2022-08-25T02:22:08;20.33;67.67
63202;DHT22;49296;48.188;11.566;2022-08-25T02:24:35;20.32;67.75
63202;DHT22;49296;48.188;11.566;2022-08-25T02:27:02;20.33;67.83
63202;DHT22;49296;48.188;11.566;2022-08-25T02:29:28;20.26;68.00
63202;DHT22;49296;48.188;11.566;2022-08-25T02:31:56;20.06;68.65
63202;DHT22;49296;48.188;11.566;2022-08-25T02:34:23;20.04;68.92
63202;DHT22;49296;48.188;11.566;2022-08-25T02:36:50;19.91;69.25
63202;DHT22;49296;48.188;11.566;2022-08-25T02:39:16;19.88;69.43
63202;DHT22;49296;48.188;11.566;2022-08-25T02:41:43;19.95;69.15
63202;DHT22;49296;48.188;11.566;2022-08-25T02:44:09;19.89;69.32
63202;DHT22;49296;48.188;11.566;2022-08-25T02:46:36;19.91;69.19
63202;DHT22;49296;48.188;11.566;2022-08-25T02:49:07;19.91;69.31
63202;DHT22;49296;48.188;11.566;2022-08-25T02:51:33;19.92;69.18
63202;DHT22;49296;48.188;11.566;2022-08-25T02:54:00;19.94;69.11
63202;DHT22;49296;48.188;11.566;2022-08-25T02:56:27;19.98;69.11
63202;DHT22;49296;48.188;11.566;2022-08-25T02:58:54;19.94;69.25
63202;DHT22;49296;48.188;11.566;2022-08-25T03:01:21;19.94;69.25
63202;DHT22;49296;48.188;11.566;2022-08-25T03:03:47;19.86;69.41
63202;DHT22;49296;48.188;11.566;2022-08-25T03:06:18;19.79;69.60
63202;DHT22;49296;48.188;11.566;2022-08-25T03:08:47;19.81;69.47
63202;DHT22;49296;48.188;11.566;2022-08-25T03:11:13;19.82;69.31
63202;DHT22;49296;48.188;11.566;2022-08-25T03:13:40;19.88;69.25
63202;DHT22;49296;48.188;11.566;2022-08-25T03:16:07;19.81;69.36
63202;DHT22;49296;48.188;11.566;2022-08-25T03:18:34;19.82;69.28
63202;DHT22;49296;48.188;11.566;2022-08-25T03:21:00;19.81;69.40
63202;DHT22;49296;48.188;11.566;2022-08-25T03:23:29;19.81;69.39
63202;DHT22;49296;48.188;11.566;2022-08-25T03:25:55;19.79;69.40
63202;DHT22;49296;48.188;11.566;2022-08-25T03:28:39;19.79;69.38
63202;DHT22;49296;48.188;11.566;2022-08-25T03:31:05;19.84;69.26
63202;DHT22;49296;48.188;11.566;2022-08-25T03:33:32;19.82;69.27
63202;DHT22;49296;48.188;11.566;2022-08-25T03:35:59;19.84;69.28
63202;DHT22;49296;48.188;11.566;2022-08-25T03:38:25;19.86;69.25
63202;DHT22;49296;48.188;11.566;2022-08-25T03:40:53;19.89;68.98
63202;DHT22;49296;48.188;11.566;2022-08-25T03:43:20;19.82;69.29
63202;DHT22;49296;48.188;11.566;2022-08-25T03:45:46;19.79;69.52
63202;DHT22;49296;48.188;11.566;2022-08-25T03:48:13;19.75;69.58
63202;DHT22;49296;48.188;11.566;2022-08-25T03:50:42;19.57;70.04
63202;DHT22;49296;48.188;11.566;2022-08-25T03:53:09;19.61;70.05
63202;DHT22;49296;48.188;11.566;2022-08-25T03:55:35;19.63;70.11
63202;DHT22;49296;48.188;11.566;2022-08-25T03:58:04;19.56;70.28
63202;DHT22;49296;48.188;11.566;2022-08-25T04:00:30;19.56;70.23
63202;DHT22;49296;48.188;11.566;2022-08-25T04:02:57;19.57;70.30
63202;DHT22;49296;48.188;11.566;2022-08-25T04:05:23;19.51;70.59
63202;DHT22;49296;48.188;11.566;2022-08-25T04:07:50;19.45;70.71
63202;DHT22;49296;48.188;11.566;2022-08-25T04:10:16;19.37;70.94
63202;DHT22;49296;48.188;11.566;2022-08-25T04:12:43;19.30;71.22
63202;DHT22;49296;48.188;11.566;2022-08-25T04:15:11;19.32;71.25
63202;DHT22;49296;48.188;11.566;2022-08-25T04:17:38;19.29;71.33
63202;DHT22;49296;48.188;11.566;2022-08-25T04:20:05;19.40;70.97
63202;DHT22;49296;48.188;11.566;2022-08-25T04:22:32;19.47;70.66
63202;DHT22;49296;48.188;11.566;2022-08-25T04:24:59;19.47;70.56
63202;DHT22;49296;48.188;11.566;2022-08-25T04:27:25;19.50;70.51
63202;DHT22;49296;48.188;11.566;2022-08-25T04:29:52;19.50;70.51
63202;DHT22;49296;48.188;11.566;2022-08-25T04:32:20;19.51;70.43
63202;DHT22;49296;48.188;11.566;2022-08-25T04:34:46;19.51;70.44
63202;DHT22;49296;48.188;11.566;2022-08-25T04:37:13;19.47;70.62
63202;DHT22;49296;48.188;11.566;2022-08-25T04:39:39;19.45;70.68
63202;DHT22;49296;48.188;11.566;2022-08-25T04:42:06;19.49;70.59
63202;DHT22;49296;48.188;11.566;2022-08-25T04:44:33;19.47;70.72
63202;DHT22;49296;48.188;11.566;2022-08-25T04:46:59;19.39;70.82
63202;DHT22;49296;48.188;11.566;2022-08-25T04:49:27;19.39;71.06
63202;DHT22;49296;48.188;11.566;2022-08-25T04:51:53;19.29;71.26
63202;DHT22;49296;48.188;11.566;2022-08-25T04:54:21;19.25;71.60
63202;DHT22;49296;48.188;11.566;2022-08-25T04:56:48;19.14;71.99
63202;DHT22;49296;48.188;11.566;2022-08-25T04:59:15;19.15;72.10
63202;DHT22;49296;48.188;11.566;2022-08-25T05:01:42;19.11;72.24
63202;DHT22;49296;48.188;11.566;2022-08-25T05:04:10;19.18;71.97
63202;DHT22;49296;48.188;11.566;2022-08-25T05:06:40;19.32;71.71
63202;DHT22;49296;48.188;11.566;2022-08-25T05:09:06;19.36;71.61
63202;DHT22;49296;48.188;11.566;2022-08-25T05:11:33;19.30;71.75
63202;DHT22;49296;48.188;11.566;2022-08-25T05:14:00;19.43;71.49
63202;DHT22;49296;48.188;11.566;2022-08-25T05:16:27;19.37;71.67
63202;DHT22;49296;48.188;11.566;2022-08-25T05:18:54;19.30;71.92
63202;DHT22;49296;48.188;11.566;2022-08-25T05:21:23;19.34;71.81
63202;DHT22;49296;48.188;11.566;2022-08-25T05:23:54;19.40;71.63
63202;DHT22;49296;48.188;11.566;2022-08-25T05:26:22;19.47;71.67
63202;DHT22;49296;48.188;11.566;2022-08-25T05:28:49;19.43;71.61
63202;DHT22;49296;48.188;11.566;2022-08-25T05:31:16;19.30;72.18
63202;DHT22;49296;48.188;11.566;2022-08-25T05:33:43;19.37;72.01
63202;DHT22;49296;48.188;11.566;2022-08-25T05:36:11;19.37;72.12
63202;DHT22;49296;48.188;11.566;2022-08-25T05:38:38;19.46;71.89
63202;DHT22;49296;48.188;11.566;2022-08-25T05:41:08;19.57;71.60
63202;DHT22;49296;48.188;11.566;2022-08-25T05:43:35;19.50;71.75
63202;DHT22;49296;48.188;11.566;2022-08-25T05:46:02;19.56;71.60
63202;DHT22;49296;48.188;11.566;2022-08-25T05:48:28;19.51;71.86
63202;DHT22;49296;48.188;11.566;2022-08-25T05:50:56;19.64;71.48
63202;DHT22;49296;48.188;11.566;2022-08-25T05:53:23;19.58;71.76
63202;DHT22;49296;48.188;11.566;2022-08-25T05:55:50;19.70;71.35
63202;DHT22;49296;48.188;11.566;2022-08-25T05:58:19;19.73;71.33
63202;DHT22;49296;48.188;11.566;2022-08-25T06:00:45;19.70;71.53
63202;DHT22;49296;48.188;11.566;2022-08-25T06:03:12;19.75;71.36
63202;DHT22;49296;48.188;11.566;2022-08-25T06:05:37;19.75;71.40
63202;DHT22;49296;48.188;11.566;2022-08-25T06:08:04;19.85;71.14
63202;DHT22;49296;48.188;11.566;2022-08-25T06:10:31;19.86;71.15
63202;DHT22;49296;48.188;11.566;2022-08-25T06:12:58;19.86;71.24
63202;DHT22;49296;48.188;11.566;2022-08-25T06:15:26;19.85;71.38
63202;DHT22;49296;48.188;11.566;2022-08-25T06:17:52;19.96;71.04
63202;DHT22;49296;48.188;11.566;2022-08-25T06:20:22;19.92;71.00
63202;DHT22;49296;48.188;11.566;2022-08-25T06:22:49;20.02;70.83
63202;DHT22;49296;48.188;11.566;2022-08-25T06:25:17;20.05;70.92
63202;DHT22;49296;48.188;11.566;2022-08-25T06:27:44;20.06;70.95
63202;DHT22;49296;48.188;11.566;2022-08-25T06:30:12;20.11;70.72
63202;DHT22;49296;48.188;11.566;2022-08-25T06:32:41;20.12;70.85
63202;DHT22;49296;48.188;11.566;2022-08-25T06:35:08;20.22;70.62
63202;DHT22;49296;48.188;11.566;2022-08-25T06:37:35;20.33;70.32
63202;DHT22;49296;48.188;11.566;2022-08-25T06:40:02;20.32;70.23
63202;DHT22;49296;48.188;11.566;2022-08-25T06:42:29;20.41;70.05
63202;DHT22;49296;48.188;11.566;2022-08-25T06:44:55;20.47;69.70
63202;DHT22;49296;48.188;11.566;2022-08-25T06:47:22;20.41;70.05
63202;DHT22;49296;48.188;11.566;2022-08-25T06:49:50;20.47;69.84
63202;DHT22;49296;48.188;11.566;2022-08-25T06:52:16;20.47;69.89
63202;DHT22;49296;48.188;11.566;2022-08-25T06:54:43;20.51;69.88
63202;DHT22;49296;48.188;11.566;2022-08-25T06:57:09;20.54;69.97
63202;DHT22;49296;48.188;11.566;2022-08-25T06:59:36;20.46;69.96
63202;DHT22;49296;48.188;11.566;2022-08-25T07:02:03;20.39;70.14
63202;DHT22;49296;48.188;11.566;2022-08-25T07:04:30;20.51;69.65
63202;DHT22;49296;48.188;11.566;2022-08-25T07:06:58;20.57;69.38
63202;DHT22;49296;48.188;11.566;2022-08-25T07:09:24;20.67;68.88
63202;DHT22;49296;48.188;11.566;2022-08-25T07:11:51;20.68;68.64
63202;DHT22;49296;48.188;11.566;2022-08-25T07:14:18;20.78;68.53
63202;DHT22;49296;48.188;11.566;2022-08-25T07:16:45;20.80;68.43
63202;DHT22;49296;48.188;11.566;2022-08-25T07:19:12;20.71;68.86
63202;DHT22;49296;48.188;11.566;2022-08-25T07:21:39;20.75;69.17
63202;DHT22;49296;48.188;11.566;2022-08-25T07:24:08;20.74;68.75
63202;DHT22;49296;48.188;11.566;2022-08-25T07:26:34;20.71;68.87
63202;DHT22;49296;48.188;11.566;2022-08-25T07:29:02;20.73;69.05
63202;DHT22;49296;48.188;11.566;2022-08-25T07:31:28;20.75;68.98
63202;DHT22;49296;48.188;11.566;2022-08-25T07:33:55;20.90;68.48
63202;DHT22;49296;48.188;11.566;2022-08-25T07:36:40;20.92;68.84
63202;DHT22;49296;48.188;11.566;2022-08-25T07:39:08;20.94;68.93
63202;DHT22;49296;48.188;11.566;2022-08-25T07:41:36;21.10;68.42
63202;DHT22;49296;48.188;11.566;2022-08-25T07:44:03;21.10;68.47
63202;DHT22;49296;48.188;11.566;2022-08-25T07:46:29;21.09;68.66
63202;DHT22;49296;48.188;11.566;2022-08-25T07:48:56;21.16;68.49
63202;DHT22;49296;48.188;11.566;2022-08-25T07:51:22;21.23;68.25
63202;DHT22;49296;48.188;11.566;2022-08-25T07:53:49;21.29;67.96
63202;DHT22;49296;48.188;11.566;2022-08-25T07:56:17;21.32;68.30
63202;DHT22;49296;48.188;11.566;2022-08-25T07:58:43;21.26;68.33
63202;DHT22;49296;48.188;11.566;2022-08-25T08:01:12;21.26;68.08
63202;DHT22;49296;48.188;11.566;2022-08-25T08:03:38;21.33;68.38
63202;DHT22;49296;48.188;11.566;2022-08-25T08:06:06;21.39;68.26
63202;DHT22;49296;48.188;11.566;2022-08-25T08:08:33;21.27;68.43
63202;DHT22;49296;48.188;11.566;2022-08-25T08:10:59;21.37;68.09
63202;DHT22;49296;48.188;11.566;2022-08-25T08:13:27;21.42;67.85
63202;DHT22;49296;48.188;11.566;2022-08-25T08:15:54;21.33;67.74
63202;DHT22;49296;48.188;11.566;2022-08-25T08:18:20;21.22;68.12
63202;DHT22;49296;48.188;11.566;2022-08-25T08:20:47;21.36;67.65
63202;DHT22;49296;48.188;11.566;2022-08-25T08:23:14;21.40;67.93
63202;DHT22;49296;48.188;11.566;2022-08-25T08:25:40;21.05;68.49
63202;DHT22;49296;48.188;11.566;2022-08-25T08:28:07;21.20;68.35
63202;DHT22;49296;48.188;11.566;2022-08-25T08:30:34;21.42;68.28
63202;DHT22;49296;48.188;11.566;2022-08-25T08:33:01;21.43;68.04
63202;DHT22;49296;48.188;11.566;2022-08-25T08:35:29;21.53;67.68
63202;DHT22;49296;48.188;11.566;2022-08-25T08:37:55;21.64;67.70
63202;DHT22;49296;48.188;11.566;2022-08-25T08:40:22;21.57;67.97
63202;DHT22;49296;48.188;11.566;2022-08-25T08:42:51;21.70;67.22
63202;DHT22;49296;48.188;11.566;2022-08-25T08:45:24;21.78;67.01
63202;DHT22;49296;48.188;11.566;2022-08-25T08:50:45;21.65;67.59
63202;DHT22;49296;48.188;11.566;2022-08-25T08:53:15;21.71;67.74
63202;DHT22;49296;48.188;11.566;2022-08-25T08:55:45;21.79;67.64
63202;DHT22;49296;48.188;11.566;2022-08-25T08:58:14;21.94;67.38
63202;DHT22;49296;48.188;11.566;2022-08-25T09:00:44;22.04;66.94
63202;DHT22;49296;48.188;11.566;2022-08-25T09:03:15;22.09;66.85
63202;DHT22;49296;48.188;11.566;2022-08-25T09:05:43;22.16;66.42
63202;DHT22;49296;48.188;11.566;2022-08-25T09:08:12;22.06;66.30
63202;DHT22;49296;48.188;11.566;2022-08-25T09:10:43;22.20;65.72
63202;DHT22;49296;48.188;11.566;2022-08-25T09:13:12;22.29;65.48
63202;DHT22;49296;48.188;11.566;2022-08-25T09:15:43;22.30;65.19
63202;DHT22;49296;48.188;11.566;2022-08-25T09:18:29;22.28;65.80
63202;DHT22;49296;48.188;11.566;2022-08-25T09:21:02;22.33;66.27
63202;DHT22;49296;48.188;11.566;2022-08-25T09:23:37;22.41;65.72
63202;DHT22;49296;48.188;11.566;2022-08-25T09:26:11;22.48;65.15
63202;DHT22;49296;48.188;11.566;2022-08-25T09:28:42;22.50;65.01
63202;DHT22;49296;48.188;11.566;2022-08-25T09:31:14;22.61;64.86
63202;DHT22;49296;48.188;11.566;2022-08-25T09:33:42;22.67;65.30
63202;DHT22;49296;48.188;11.566;2022-08-25T09:36:09;22.58;66.14
63202;DHT22;49296;48.188;11.566;2022-08-25T09:38:37;22.68;65.44
63202;DHT22;49296;48.188;11.566;2022-08-25T09:41:04;22.68;66.05
63202;DHT22;49296;48.188;11.566;2022-08-25T09:43:31;22.74;65.56
63202;DHT22;49296;48.188;11.566;2022-08-25T09:46:00;22.84;65.14
63202;DHT22;49296;48.188;11.566;2022-08-25T09:48:29;22.91;65.22
63202;DHT22;49296;48.188;11.566;2022-08-25T09:53:46;22.99;64.43
63202;DHT22;49296;48.188;11.566;2022-08-25T09:56:14;23.02;64.58
63202;DHT22;49296;48.188;11.566;2022-08-25T09:58:42;23.08;65.00
63202;DHT22;49296;48.188;11.566;2022-08-25T10:01:13;23.09;64.18
63202;DHT22;49296;48.188;11.566;2022-08-25T10:03:56;23.08;64.14
63202;DHT22;49296;48.188;11.566;2022-08-25T10:06:23;23.13;64.44
63202;DHT22;49296;48.188;11.566;2022-08-25T10:08:54;23.16;64.69
63202;DHT22;49296;48.188;11.566;2022-08-25T10:11:30;23.22;64.99
63202;DHT22;49296;48.188;11.566;2022-08-25T10:14:00;23.30;64.78
63202;DHT22;49296;48.188;11.566;2022-08-25T10:16:27;23.37;63.64
63202;DHT22;49296;48.188;11.566;2022-08-25T10:18:59;23.49;64.50
63202;DHT22;49296;48.188;11.566;2022-08-25T10:21:26;23.53;64.26
63202;DHT22;49296;48.188;11.566;2022-08-25T10:23:54;23.62;64.57
63202;DHT22;49296;48.188;11.566;2022-08-25T10:26:22;23.70;62.48
63202;DHT22;49296;48.188;11.566;2022-08-25T10:28:59;23.79;63.19
63202;DHT22;49296;48.188;11.566;2022-08-25T10:31:28;23.84;62.30
63202;DHT22;49296;48.188;11.566;2022-08-25T10:34:02;23.92;62.60
63202;DHT22;49296;48.188;11.566;2022-08-25T10:36:33;23.95;62.83
63202;DHT22;49296;48.188;11.566;2022-08-25T10:39:04;24.02;62.71
63202;DHT22;49296;48.188;11.566;2022-08-25T10:41:38;24.08;63.34
63202;DHT22;49296;48.188;11.566;2022-08-25T10:44:09;24.05;62.08
63202;DHT22;49296;48.188;11.566;2022-08-25T10:47:03;24.09;61.38
63202;DHT22;49296;48.188;11.566;2022-08-25T10:49:32;24.05;61.42
63202;DHT22;49296;48.188;11.566;2022-08-25T10:52:02;24.09;61.96
63202;DHT22;49296;48.188;11.566;2022-08-25T10:54:34;24.15;61.56
63202;DHT22;49296;48.188;11.566;2022-08-25T10:57:04;24.23;63.20
63202;DHT22;49296;48.188;11.566;2022-08-25T10:59:51;24.32;59.99
63202;DHT22;49296;48.188;11.566;2022-08-25T11:02:38;24.43;60.67
63202;DHT22;49296;48.188;11.566;2022-08-25T11:05:11;24.49;60.82
63202;DHT22;49296;48.188;11.566;2022-08-25T11:07:39;24.57;60.43
63202;DHT22;49296;48.188;11.566;2022-08-25T11:10:10;24.64;60.48
63202;DHT22;49296;48.188;11.566;2022-08-25T11:12:38;24.74;61.87
63202;DHT22;49296;48.188;11.566;2022-08-25T11:15:06;24.89;59.44
63202;DHT22;49296;48.188;11.566;2022-08-25T11:17:37;24.92;58.11
63202;DHT22;49296;48.188;11.566;2022-08-25T11:20:07;25.05;59.26
63202;DHT22;49296;48.188;11.566;2022-08-25T11:22:38;25.15;59.65
63202;DHT22;49296;48.188;11.566;2022-08-25T11:25:09;25.29;59.81
63202;DHT22;49296;48.188;11.566;2022-08-25T11:27:40;25.36;59.58
63202;DHT22;49296;48.188;11.566;2022-08-25T11:30:10;25.30;58.78
63202;DHT22;49296;48.188;11.566;2022-08-25T11:32:36;25.46;59.64
63202;DHT22;49296;48.188;11.566;2022-08-25T11:35:05;25.54;58.67
63202;DHT22;49296;48.188;11.566;2022-08-25T11:37:32;25.48;57.61
63202;DHT22;49296;48.188;11.566;2022-08-25T11:40:06;25.41;59.03
63202;DHT22;49296;48.188;11.566;2022-08-25T11:42:42;25.43;59.10
63202;DHT22;49296;48.188;11.566;2022-08-25T11:45:14;25.48;58.79
63202;DHT22;49296;48.188;11.566;2022-08-25T11:47:53;25.63;58.71
63202;DHT22;49296;48.188;11.566;2022-08-25T11:50:25;25.78;57.35
63202;DHT22;49296;48.188;11.566;2022-08-25T11:52:53;25.88;56.31
63202;DHT22;49296;48.188;11.566;2022-08-25T11:55:21;25.75;55.96
63202;DHT22;49296;48.188;11.566;2022-08-25T11:57:50;25.72;56.21
63202;DHT22;49296;48.188;11.566;2022-08-25T12:02:58;26.08;55.76
63202;DHT22;49296;48.188;11.566;2022-08-25T12:08:09;26.23;55.26
63202;DHT22;49296;48.188;11.566;2022-08-25T12:10:55;26.39;56.45
63202;DHT22;49296;48.188;11.566;2022-08-25T12:13:24;26.68;56.08
63202;DHT22;49296;48.188;11.566;2022-08-25T12:15:55;26.77;53.86
63202;DHT22;49296;48.188;11.566;2022-08-25T12:18:36;26.98;53.14
63202;DHT22;49296;48.188;11.566;2022-08-25T12:24:06;26.86;53.33
63202;DHT22;49296;48.188;11.566;2022-08-25T12:26:35;26.92;54.12
63202;DHT22;49296;48.188;11.566;2022-08-25T12:29:07;27.00;52.29
63202;DHT22;49296;48.188;11.566;2022-08-25T12:31:42;26.88;53.24
63202;DHT22;49296;48.188;11.566;2022-08-25T12:34:26;26.86;53.87
63202;DHT22;49296;48.188;11.566;2022-08-25T12:36:58;26.91;53.68
63202;DHT22;49296;48.188;11.566;2022-08-25T12:39:28;27.24;53.20
63202;DHT22;49296;48.188;11.566;2022-08-25T12:41:56;27.50;52.13
63202;DHT22;49296;48.188;11.566;2022-08-25T12:44:39;27.85;50.84
63202;DHT22;49296;48.188;11.566;2022-08-25T12:47:06;27.88;51.33
63202;DHT22;49296;48.188;11.566;2022-08-25T12:49:40;28.17;50.60
63202;DHT22;49296;48.188;11.566;2022-08-25T12:52:14;28.26;50.03
63202;DHT22;49296;48.188;11.566;2022-08-25T12:54:44;28.34;50.19
63202;DHT22;49296;48.188;11.566;2022-08-25T12:57:20;28.71;49.33
63202;DHT22;49296;48.188;11.566;2022-08-25T12:59:52;28.85;47.73
63202;DHT22;49296;48.188;11.566;2022-08-25T13:05:04;29.20;48.34
63202;DHT22;49296;48.188;11.566;2022-08-25T13:07:45;29.44;47.11
63202;DHT22;49296;48.188;11.566;2022-08-25T13:10:28;29.59;46.67
63202;DHT22;49296;48.188;11.566;2022-08-25T13:12:58;29.69;46.59
63202;DHT22;49296;48.188;11.566;2022-08-25T13:15:34;29.95;44.93
63202;DHT22;49296;48.188;11.566;2022-08-25T13:18:14;29.78;44.78
63202;DHT22;49296;48.188;11.566;2022-08-25T13:20:43;29.89;44.91
63202;DHT22;49296;48.188;11.566;2022-08-25T13:23:09;30.20;45.12
63202;DHT22;49296;48.188;11.566;2022-08-25T13:25:38;30.58;44.84
63202;DHT22;49296;48.188;11.566;2022-08-25T13:28:10;30.72;45.15
63202;DHT22;49296;48.188;11.566;2022-08-25T13:30:45;30.57;44.83
63202;DHT22;49296;48.188;11.566;2022-08-25T13:33:21;30.93;44.77
63202;DHT22;49296;48.188;11.566;2022-08-25T13:35:48;31.24;43.78
63202;DHT22;49296;48.188;11.566;2022-08-25T13:38:35;31.37;42.41
63202;DHT22;49296;48.188;11.566;2022-08-25T13:41:01;31.68;42.94
63202;DHT22;49296;48.188;11.566;2022-08-25T13:43:28;31.88;41.57
63202;DHT22;49296;48.188;11.566;2022-08-25T13:45:56;32.23;41.35
63202;DHT22;49296;48.188;11.566;2022-08-25T13:48:31;32.19;40.68
63202;DHT22;49296;48.188;11.566;2022-08-25T13:51:04;32.40;40.65
63202;DHT22;49296;48.188;11.566;2022-08-25T13:53:31;32.65;40.02
63202;DHT22;49296;48.188;11.566;2022-08-25T13:55:58;32.71;39.70
63202;DHT22;49296;48.188;11.566;2022-08-25T13:58:29;32.90;40.42
63202;DHT22;49296;48.188;11.566;2022-08-25T14:01:01;33.46;38.45
63202;DHT22;49296;48.188;11.566;2022-08-25T14:03:29;33.67;38.61
63202;DHT22;49296;48.188;11.566;2022-08-25T14:06:03;33.81;37.96
63202;DHT22;49296;48.188;11.566;2022-08-25T14:08:30;33.79;38.35
63202;DHT22;49296;48.188;11.566;2022-08-25T14:11:01;33.68;39.08
63202;DHT22;49296;48.188;11.566;2022-08-25T14:13:37;33.47;38.16
63202;DHT22;49296;48.188;11.566;2022-08-25T14:16:10;32.95;39.59
63202;DHT22;49296;48.188;11.566;2022-08-25T14:18:37;32.94;39.63
63202;DHT22;49296;48.188;11.566;2022-08-25T14:21:09;32.83;39.99
63202;DHT22;49296;48.188;11.566;2022-08-25T14:23:36;32.30;40.65
63202;DHT22;49296;48.188;11.566;2022-08-25T14:26:03;32.17;41.41
63202;DHT22;49296;48.188;11.566;2022-08-25T14:28:30;32.23;41.26
63202;DHT22;49296;48.188;11.566;2022-08-25T14:30:57;31.69;41.63
63202;DHT22;49296;48.188;11.566;2022-08-25T14:33:27;31.85;41.80
63202;DHT22;49296;48.188;11.566;2022-08-25T14:35:56;31.62;41.66
63202;DHT22;49296;48.188;11.566;2022-08-25T14:38:24;32.05;41.24
63202;DHT22;49296;48.188;11.566;2022-08-25T14:40:50;31.81;41.20
63202;DHT22;49296;48.188;11.566;2022-08-25T14:43:17;31.38;41.88
63202;DHT22;49296;48.188;11.566;2022-08-25T14:45:44;31.37;41.98
63202;DHT22;49296;48.188;11.566;2022-08-25T14:48:22;30.79;42.63
63202;DHT22;49296;48.188;11.566;2022-08-25T14:50:51;30.81;42.80
63202;DHT22;49296;48.188;11.566;2022-08-25T14:53:18;31.10;42.55
63202;DHT22;49296;48.188;11.566;2022-08-25T14:55:45;30.83;43.22
63202;DHT22;49296;48.188;11.566;2022-08-25T14:58:11;31.34;42.44
63202;DHT22;49296;48.188;11.566;2022-08-25T15:00:39;31.23;42.34
63202;DHT22;49296;48.188;11.566;2022-08-25T15:03:06;31.06;42.59
63202;DHT22;49296;48.188;11.566;2022-08-25T15:05:32;30.82;43.03
63202;DHT22;49296;48.188;11.566;2022-08-25T15:08:00;30.81;42.88
63202;DHT22;49296;48.188;11.566;2022-08-25T15:10:44;30.61;43.27
63202;DHT22;49296;48.188;11.566;2022-08-25T15:13:11;30.33;43.70
63202;DHT22;49296;48.188;11.566;2022-08-25T15:15:39;30.71;43.45
63202;DHT22;49296;48.188;11.566;2022-08-25T15:18:06;30.47;43.85
63202;DHT22;49296;48.188;11.566;2022-08-25T15:20:33;30.16;44.31
63202;DHT22;49296;48.188;11.566;2022-08-25T15:23:00;30.30;44.11
63202;DHT22;49296;48.188;11.566;2022-08-25T15:25:27;30.27;44.07
63202;DHT22;49296;48.188;11.566;2022-08-25T15:27:53;30.27;44.41
63202;DHT22;49296;48.188;11.566;2022-08-25T15:30:20;30.44;43.82
63202;DHT22;49296;48.188;11.566;2022-08-25T15:32:46;30.58;43.12
63202;DHT22;49296;48.188;11.566;2022-08-25T15:35:13;30.90;42.15
63202;DHT22;49296;48.188;11.566;2022-08-25T15:37:39;31.26;41.58
63202;DHT22;49296;48.188;11.566;2022-08-25T15:40:08;31.48;41.06
63202;DHT22;49296;48.188;11.566;2022-08-25T15:42:35;31.69;41.07